Baltimore, Maryland
Traffic Map
Current Weather Conditions
Baltimore, Maryland
Broken Clouds
Broken Clouds
36°
Feels Like: 30°
Wind Chill: 30° Ceiling: 7000
Heat Index: 36° Visibility: 10mi
Dew Point: 29° Wind: 7mph
Humidity: 76% Direction: 260° (W)
Pressure: 30.15in Gusts: 0mph
Raw Report DataKBWI 280254Z 26006KT 10SM BKN070 02/M02 A3015 RMK AO2 SLP209 T00221017 51012
Traffic Incident Summary
Active as of:
Severity:
Category:
InformationThere was an issue retrieving the traffic information for this location. Please try a different location or try again shortly.
Advertisements
Track Severe Weather on mobile